createdAt,value
2022-10-16T00:01:16.198Z,61.90
2022-10-16T00:03:43.406Z,55.93
2022-10-16T00:06:10.129Z,58.00
2022-10-16T00:08:36.953Z,64.90
2022-10-16T00:11:04.208Z,60.97
2022-10-16T00:13:31.046Z,57.40
2022-10-16T00:15:58.273Z,56.53
2022-10-16T00:18:25.088Z,61.63
2022-10-16T00:20:52.065Z,63.93
2022-10-16T00:23:18.694Z,60.70
2022-10-16T00:25:45.354Z,57.83
2022-10-16T00:28:11.970Z,56.70
2022-10-16T00:30:39.116Z,58.37
2022-10-16T00:33:05.670Z,56.73
2022-10-16T00:35:32.317Z,56.77
2022-10-16T00:37:58.899Z,57.93
2022-10-16T00:40:25.461Z,53.53
2022-10-16T00:42:52.132Z,51.60
2022-10-16T00:45:19.029Z,55.00
2022-10-16T00:47:46.908Z,54.90
2022-10-16T00:50:22.935Z,53.67
2022-10-16T00:52:49.608Z,51.43
2022-10-16T00:55:16.195Z,51.93
2022-10-16T00:57:42.888Z,48.83
2022-10-16T01:00:10.243Z,49.97
2022-10-16T01:02:36.846Z,50.10
2022-10-16T01:05:03.648Z,45.37
2022-10-16T01:08:02.819Z,46.50
2022-10-16T01:10:29.617Z,41.33
2022-10-16T01:13:04.032Z,42.50
2022-10-16T01:15:30.723Z,40.03
2022-10-16T01:18:12.366Z,41.77
2022-10-16T01:20:46.878Z,42.60
2022-10-16T01:23:28.502Z,39.23
2022-10-16T01:25:59.730Z,42.33
2022-10-16T01:28:28.901Z,42.63
2022-10-16T01:30:56.543Z,40.67
2022-10-16T01:33:28.213Z,37.07
2022-10-16T01:35:56.189Z,39.27
2022-10-16T01:38:25.091Z,35.20
2022-10-16T01:40:53.010Z,38.03
2022-10-16T01:43:29.993Z,33.17
2022-10-16T01:46:17.847Z,34.47
2022-10-16T01:48:44.469Z,31.57
2022-10-16T01:51:11.665Z,32.93
2022-10-16T01:53:38.909Z,33.23
2022-10-16T01:56:06.410Z,31.73
2022-10-16T01:58:35.666Z,31.70
2022-10-16T02:01:02.792Z,33.23
2022-10-16T02:03:29.625Z,32.53
2022-10-16T02:05:56.901Z,26.40
2022-10-16T02:08:24.067Z,29.73
2022-10-16T02:10:50.985Z,28.23
2022-10-16T02:13:29.901Z,25.63
2022-10-16T02:15:56.482Z,26.87
2022-10-16T02:18:23.171Z,27.70
2022-10-16T02:20:51.809Z,27.87
2022-10-16T02:23:21.231Z,25.43
2022-10-16T02:25:47.809Z,26.73
2022-10-16T02:28:24.933Z,25.40
2022-10-16T02:30:52.312Z,24.93
2022-10-16T02:33:18.942Z,27.90
2022-10-16T02:35:46.156Z,24.20
2022-10-16T02:38:12.837Z,24.37
2022-10-16T02:40:40.633Z,24.40
2022-10-16T02:43:07.587Z,25.40
2022-10-16T02:45:34.253Z,27.47
2022-10-16T02:48:00.775Z,26.37
2022-10-16T02:50:27.455Z,22.63
2022-10-16T02:52:54.000Z,26.00
2022-10-16T02:55:20.573Z,26.40
2022-10-16T02:57:47.165Z,26.80
2022-10-16T03:00:14.380Z,26.60
2022-10-16T03:02:40.956Z,27.13
2022-10-16T03:05:09.024Z,26.47
2022-10-16T03:07:35.630Z,24.80
2022-10-16T03:10:02.408Z,23.20
2022-10-16T03:12:29.223Z,24.83
2022-10-16T03:14:58.855Z,23.13
2022-10-16T03:17:25.824Z,23.93
2022-10-16T03:19:52.743Z,27.77
2022-10-16T03:22:19.341Z,26.77
2022-10-16T03:24:45.946Z,25.67
2022-10-16T03:27:12.559Z,25.37
2022-10-16T03:29:39.224Z,24.93
2022-10-16T03:32:05.804Z,24.80
2022-10-16T03:34:32.779Z,27.53
2022-10-16T03:36:59.326Z,27.50
2022-10-16T03:39:26.053Z,26.07
2022-10-16T03:41:52.634Z,27.17
2022-10-16T03:44:19.182Z,26.33
2022-10-16T03:46:45.745Z,28.33
2022-10-16T03:49:12.850Z,32.33
2022-10-16T03:51:39.496Z,31.73
2022-10-16T03:54:06.090Z,33.03
2022-10-16T03:56:32.731Z,31.03
2022-10-16T03:58:59.702Z,32.10
2022-10-16T04:01:26.300Z,32.10
2022-10-16T04:03:53.024Z,30.37
2022-10-16T04:06:19.852Z,30.77
2022-10-16T04:08:47.799Z,32.83
2022-10-16T04:11:14.752Z,33.57
2022-10-16T04:13:41.387Z,28.63
2022-10-16T04:16:08.000Z,30.13
2022-10-16T04:18:34.748Z,29.30
2022-10-16T04:21:04.898Z,28.03
2022-10-16T04:23:31.594Z,30.70
2022-10-16T04:25:58.193Z,32.90
2022-10-16T04:28:24.916Z,28.07
2022-10-16T04:30:51.693Z,33.13
2022-10-16T04:33:18.333Z,29.80
2022-10-16T04:35:44.992Z,29.93
2022-10-16T04:38:11.654Z,29.87
2022-10-16T04:40:38.284Z,28.97
2022-10-16T04:43:05.315Z,28.90
2022-10-16T04:45:31.901Z,29.20
2022-10-16T04:47:58.936Z,30.27
2022-10-16T04:50:25.547Z,31.93
2022-10-16T04:53:05.117Z,29.97
2022-10-16T04:55:31.741Z,31.57
2022-10-16T04:57:58.352Z,34.07
2022-10-16T05:00:25.003Z,31.73
2022-10-16T05:02:51.737Z,34.83
2022-10-16T05:05:20.358Z,32.53
2022-10-16T05:07:47.520Z,34.27
2022-10-16T05:10:14.217Z,32.57
2022-10-16T05:12:40.816Z,43.87
2022-10-16T05:15:10.060Z,37.50
2022-10-16T05:17:38.902Z,32.20
2022-10-16T05:20:06.748Z,37.60
2022-10-16T05:22:33.316Z,34.33
2022-10-16T05:24:59.936Z,35.27
2022-10-16T05:27:26.712Z,37.37
2022-10-16T05:29:53.530Z,35.53
2022-10-16T05:32:20.324Z,37.67
2022-10-16T05:34:47.059Z,34.03
2022-10-16T05:37:13.673Z,38.40
2022-10-16T05:39:40.409Z,36.90
2022-10-16T05:42:07.276Z,38.53
2022-10-16T05:47:00.856Z,41.17
2022-10-16T05:49:27.393Z,41.37
2022-10-16T05:51:53.948Z,38.63
2022-10-16T05:54:20.556Z,39.73
2022-10-16T05:56:48.167Z,41.50
2022-10-16T05:59:15.306Z,41.63
2022-10-16T06:01:41.995Z,44.13
2022-10-16T06:04:09.254Z,45.70
2022-10-16T06:06:37.409Z,46.27
2022-10-16T06:09:04.178Z,46.67
2022-10-16T06:11:31.730Z,48.80
2022-10-16T06:13:59.200Z,48.20
2022-10-16T06:16:26.101Z,50.27
2022-10-16T06:18:53.246Z,47.87
2022-10-16T06:21:25.971Z,47.70
2022-10-16T06:23:52.827Z,51.47
2022-10-16T06:26:20.257Z,51.90
2022-10-16T06:28:48.364Z,47.23
2022-10-16T06:31:15.356Z,46.63
2022-10-16T06:33:42.123Z,45.53
2022-10-16T06:36:09.869Z,46.30
2022-10-16T06:38:36.659Z,49.70
2022-10-16T06:41:03.330Z,43.80
2022-10-16T06:43:33.088Z,46.30
2022-10-16T06:46:00.116Z,45.30
2022-10-16T06:48:27.003Z,44.97
2022-10-16T06:53:39.517Z,42.37
2022-10-16T06:56:13.100Z,42.83
2022-10-16T06:58:39.873Z,43.77
2022-10-16T07:01:06.603Z,39.50
2022-10-16T07:03:33.417Z,40.33
2022-10-16T07:06:04.354Z,39.10
2022-10-16T07:08:38.111Z,35.93
2022-10-16T07:11:05.800Z,35.23
2022-10-16T07:13:36.209Z,32.03
2022-10-16T07:16:07.030Z,33.53
2022-10-16T07:18:33.912Z,29.97
2022-10-16T07:21:15.093Z,28.93
2022-10-16T07:23:42.261Z,31.73
2022-10-16T07:26:10.359Z,27.83
2022-10-16T07:28:37.100Z,31.47
2022-10-16T07:31:05.129Z,29.83
2022-10-16T07:33:32.733Z,32.70
2022-10-16T07:35:59.421Z,33.77
2022-10-16T07:38:26.100Z,36.67
2022-10-16T07:40:59.179Z,38.20
2022-10-16T07:43:26.604Z,38.87
2022-10-16T07:48:24.804Z,43.87
2022-10-16T07:50:52.459Z,43.83
2022-10-16T07:53:26.198Z,45.90
2022-10-16T07:55:54.123Z,46.93
2022-10-16T07:58:21.555Z,44.20
2022-10-16T08:00:48.258Z,52.30
2022-10-16T08:03:14.887Z,49.47
2022-10-16T08:05:42.105Z,44.70
2022-10-16T08:08:12.250Z,47.50
2022-10-16T08:10:40.748Z,46.30
2022-10-16T08:15:40.153Z,49.20
2022-10-16T08:18:08.139Z,49.00
2022-10-16T08:20:35.062Z,49.67
2022-10-16T08:23:03.017Z,52.93
2022-10-16T08:25:29.953Z,49.10
2022-10-16T08:27:56.653Z,50.87
2022-10-16T08:30:24.908Z,45.33
2022-10-16T08:32:52.661Z,47.97
2022-10-16T08:35:19.498Z,49.10
2022-10-16T08:37:46.473Z,50.33
2022-10-16T08:40:18.347Z,50.77
2022-10-16T08:42:46.186Z,44.57
2022-10-16T08:45:26.018Z,45.53
2022-10-16T08:47:59.689Z,43.23
2022-10-16T08:50:29.442Z,43.57
2022-10-16T08:52:56.276Z,46.97
2022-10-16T08:55:39.748Z,44.97
2022-10-16T08:58:17.011Z,41.63
2022-10-16T09:00:44.637Z,39.73
2022-10-16T09:03:30.016Z,42.33
2022-10-16T09:06:09.160Z,45.63
2022-10-16T09:08:55.171Z,43.73
2022-10-16T09:11:31.603Z,41.80
2022-10-16T09:14:17.211Z,39.17
2022-10-16T09:16:53.895Z,43.10
2022-10-16T09:19:35.465Z,44.10
2022-10-16T09:22:03.165Z,41.60
2022-10-16T09:24:30.679Z,39.17
2022-10-16T09:26:59.791Z,42.00
2022-10-16T09:29:30.329Z,34.90
2022-10-16T09:31:57.429Z,42.00
2022-10-16T09:34:27.585Z,39.37
2022-10-16T09:36:55.725Z,36.97
2022-10-16T09:39:22.989Z,39.03
2022-10-16T09:41:53.571Z,39.87
2022-10-16T09:44:29.952Z,40.40
2022-10-16T09:47:04.501Z,40.30
2022-10-16T09:49:31.357Z,41.37
2022-10-16T09:52:08.724Z,38.43
2022-10-16T09:54:35.403Z,43.17
2022-10-16T09:57:05.507Z,43.67
2022-10-16T09:59:34.089Z,43.07
2022-10-16T10:02:05.866Z,39.97
2022-10-16T10:04:44.126Z,40.90
2022-10-16T10:07:33.939Z,47.27
2022-10-16T10:10:00.895Z,44.40
2022-10-16T10:12:34.694Z,41.00
2022-10-16T10:15:05.556Z,40.40
2022-10-16T10:17:37.389Z,42.87
2022-10-16T10:20:24.934Z,44.37
2022-10-16T10:22:52.140Z,45.27
2022-10-16T10:25:25.017Z,42.90
2022-10-16T10:28:25.140Z,44.40
2022-10-16T10:31:18.397Z,39.87
2022-10-16T10:34:04.943Z,40.80
2022-10-16T10:36:33.255Z,44.70
2022-10-16T10:39:23.370Z,42.53
2022-10-16T10:41:49.973Z,45.07
2022-10-16T10:44:36.513Z,41.10
2022-10-16T10:47:05.535Z,40.13
2022-10-16T10:49:50.870Z,42.83
2022-10-16T10:52:24.863Z,37.50
2022-10-16T10:55:12.248Z,40.83
2022-10-16T10:58:02.339Z,38.77
2022-10-16T11:00:32.943Z,35.40
2022-10-16T11:03:35.161Z,33.33
2022-10-16T11:06:14.491Z,33.10
2022-10-16T11:08:41.084Z,30.27
2022-10-16T11:11:26.516Z,27.37
2022-10-16T11:14:20.329Z,25.00
2022-10-16T11:16:56.116Z,25.57
2022-10-16T11:19:23.810Z,23.57
2022-10-16T11:21:51.834Z,23.40
2022-10-16T11:24:27.196Z,21.13
2022-10-16T11:26:54.374Z,20.40
2022-10-16T11:29:23.850Z,21.10
2022-10-16T11:31:54.232Z,19.37
2022-10-16T11:34:43.223Z,18.10
2022-10-16T11:37:11.056Z,22.93
2022-10-16T11:39:38.151Z,19.67
2022-10-16T11:42:12.764Z,19.13
2022-10-16T11:44:42.536Z,17.23
2022-10-16T11:47:46.642Z,17.30
2022-10-16T11:50:13.085Z,16.77
2022-10-16T11:52:48.028Z,14.13
2022-10-16T11:55:18.839Z,16.23
2022-10-16T11:57:47.751Z,12.13
2022-10-16T12:00:20.830Z,13.07
2022-10-16T12:02:47.509Z,12.33
2022-10-16T12:05:34.622Z,13.10
2022-10-16T12:08:03.510Z,13.13
2022-10-16T12:10:32.726Z,12.37
2022-10-16T12:13:00.852Z,10.87
2022-10-16T12:15:57.694Z,10.87
2022-10-16T12:18:25.812Z,11.37
2022-10-16T12:21:00.445Z,10.37
2022-10-16T12:23:27.340Z,10.40
2022-10-16T12:25:57.964Z,12.43
2022-10-16T12:28:31.118Z,10.97
2022-10-16T12:30:59.197Z,12.77
2022-10-16T12:33:32.839Z,9.60
2022-10-16T12:36:00.334Z,9.50
2022-10-16T12:38:42.505Z,7.27
2022-10-16T12:41:09.932Z,7.47
2022-10-16T12:43:39.761Z,8.27
2022-10-16T12:46:09.564Z,6.37
2022-10-16T12:48:49.114Z,7.53
2022-10-16T12:51:23.947Z,6.50
2022-10-16T12:54:11.589Z,7.47
2022-10-16T12:56:42.587Z,6.20
2022-10-16T12:59:27.723Z,7.27
2022-10-16T13:02:16.310Z,7.00
2022-10-16T13:04:49.609Z,7.13
2022-10-16T13:07:16.393Z,7.40
2022-10-16T13:09:50.825Z,7.10
2022-10-16T13:12:37.030Z,6.30
2022-10-16T13:15:22.421Z,6.50
2022-10-16T13:17:55.410Z,6.53
2022-10-16T13:20:32.025Z,6.90
2022-10-16T13:23:09.137Z,6.47
2022-10-16T13:25:46.778Z,8.87
2022-10-16T13:28:13.754Z,7.50
2022-10-16T13:30:40.803Z,7.93
2022-10-16T13:33:27.662Z,7.10
2022-10-16T13:35:58.442Z,6.97
2022-10-16T13:38:26.747Z,6.73
2022-10-16T13:40:53.587Z,8.43
2022-10-16T13:43:20.936Z,7.33
2022-10-16T13:46:04.991Z,7.20
2022-10-16T13:48:33.863Z,8.73
2022-10-16T13:53:56.020Z,11.40
2022-10-16T13:56:23.664Z,6.90
2022-10-16T13:59:03.608Z,7.00
2022-10-16T14:01:32.712Z,10.93
2022-10-16T14:04:04.174Z,8.50
2022-10-16T14:06:33.328Z,6.80
2022-10-16T14:09:03.375Z,7.60
2022-10-16T14:11:32.580Z,7.97
2022-10-16T14:14:02.305Z,13.03
2022-10-16T14:16:33.852Z,8.50
2022-10-16T14:19:05.032Z,7.57
2022-10-16T14:21:35.568Z,11.07
2022-10-16T14:24:11.459Z,8.40
2022-10-16T14:26:44.781Z,9.40
2022-10-16T14:29:15.869Z,7.53
2022-10-16T14:31:42.620Z,10.10
2022-10-16T14:34:48.249Z,8.27
2022-10-16T14:37:22.618Z,9.33
2022-10-16T14:39:52.329Z,8.07
2022-10-16T14:42:20.417Z,9.00
2022-10-16T14:44:47.337Z,8.70
2022-10-16T14:47:15.020Z,8.70
2022-10-16T14:49:45.072Z,11.30
2022-10-16T14:52:14.642Z,10.07
2022-10-16T14:54:42.604Z,9.67
2022-10-16T14:57:27.607Z,9.00
2022-10-16T14:59:55.424Z,12.03
2022-10-16T15:02:35.288Z,11.07
2022-10-16T15:05:28.289Z,9.37
2022-10-16T15:07:56.371Z,10.40
2022-10-16T15:10:24.209Z,9.07
2022-10-16T15:12:51.096Z,12.33
2022-10-16T15:15:37.823Z,9.37
2022-10-16T15:18:05.730Z,10.83
2022-10-16T15:20:34.798Z,9.40
2022-10-16T15:23:05.423Z,10.83
2022-10-16T15:25:45.207Z,11.27
2022-10-16T15:28:12.041Z,12.30
2022-10-16T15:30:39.086Z,9.90
2022-10-16T15:33:08.731Z,11.37
2022-10-16T15:35:35.547Z,11.63
2022-10-16T15:38:02.974Z,9.43
2022-10-16T15:40:29.686Z,13.70
2022-10-16T15:42:56.379Z,11.70
2022-10-16T15:45:23.121Z,11.77
2022-10-16T15:47:49.928Z,13.67
2022-10-16T15:50:16.994Z,11.17
2022-10-16T15:52:43.855Z,12.00
2022-10-16T15:55:11.245Z,12.03
2022-10-16T15:57:42.120Z,10.00
2022-10-16T16:00:10.611Z,11.93
2022-10-16T16:02:40.836Z,10.83
2022-10-16T16:05:10.782Z,10.33
2022-10-16T16:07:38.376Z,10.80
2022-10-16T16:10:05.642Z,12.30
2022-10-16T16:12:34.478Z,11.30
2022-10-16T16:15:04.880Z,12.37
2022-10-16T16:17:33.235Z,10.93
2022-10-16T16:20:02.290Z,12.87
2022-10-16T16:22:29.799Z,12.07
2022-10-16T16:24:57.144Z,13.40
2022-10-16T16:27:26.759Z,11.73
2022-10-16T16:29:56.654Z,12.63
2022-10-16T16:32:24.084Z,12.57
2022-10-16T16:34:51.052Z,12.43
2022-10-16T16:37:17.760Z,15.10
2022-10-16T16:39:44.731Z,14.10
2022-10-16T16:42:11.962Z,14.27
2022-10-16T16:44:39.030Z,12.10
2022-10-16T16:47:07.203Z,13.83
2022-10-16T16:49:34.949Z,13.87
2022-10-16T16:52:02.518Z,16.07
2022-10-16T16:54:29.660Z,14.17
2022-10-16T16:56:56.817Z,15.30
2022-10-16T16:59:24.945Z,15.87
2022-10-16T17:01:57.148Z,15.57
2022-10-16T17:04:24.398Z,17.53
2022-10-16T17:06:51.202Z,20.50
2022-10-16T17:09:17.988Z,14.80
2022-10-16T17:11:45.711Z,16.57
2022-10-16T17:14:12.818Z,17.60
2022-10-16T17:16:40.968Z,17.97
2022-10-16T17:19:18.185Z,16.63
2022-10-16T17:21:47.615Z,12.70
2022-10-16T17:24:15.664Z,19.07
2022-10-16T17:26:50.272Z,15.43
2022-10-16T17:29:18.097Z,16.17
2022-10-16T17:31:44.884Z,16.83
2022-10-16T17:34:14.247Z,17.53
2022-10-16T17:36:49.561Z,14.87
2022-10-16T17:39:18.327Z,19.70
2022-10-16T17:41:45.479Z,18.63
2022-10-16T17:44:19.587Z,14.77
2022-10-16T17:46:48.206Z,16.90
2022-10-16T17:49:15.100Z,96.37
2022-10-16T17:51:42.735Z,277.43
2022-10-16T17:54:12.170Z,174.57
2022-10-16T17:56:39.177Z,104.87
2022-10-16T17:59:07.238Z,27.07
2022-10-16T18:01:36.996Z,25.50
2022-10-16T18:04:05.969Z,19.67
2022-10-16T18:06:35.217Z,25.87
2022-10-16T18:09:02.187Z,19.37
2022-10-16T18:11:34.500Z,22.27
2022-10-16T18:14:03.279Z,19.67
2022-10-16T18:16:30.241Z,20.53
2022-10-16T18:18:57.795Z,23.27
2022-10-16T18:21:28.916Z,23.63
2022-10-16T18:23:58.386Z,19.37
2022-10-16T18:26:25.105Z,17.83
2022-10-16T18:28:56.871Z,16.27
2022-10-16T18:31:24.034Z,20.80
2022-10-16T18:33:54.832Z,19.70
2022-10-16T18:36:24.299Z,22.50
2022-10-16T18:38:52.852Z,16.50
2022-10-16T18:41:19.884Z,18.33
2022-10-16T18:43:48.738Z,21.40
2022-10-16T18:46:22.776Z,28.47
2022-10-16T18:48:50.055Z,22.87
2022-10-16T18:51:22.895Z,20.07
2022-10-16T18:53:55.563Z,21.57
2022-10-16T18:56:24.217Z,25.97
2022-10-16T18:58:54.400Z,22.63
2022-10-16T19:01:23.513Z,19.20
2022-10-16T19:03:55.669Z,28.67
2022-10-16T19:06:24.341Z,22.57
2022-10-16T19:08:56.374Z,25.97
2022-10-16T19:11:23.942Z,25.27
2022-10-16T19:13:51.748Z,25.27
2022-10-16T19:16:21.407Z,31.33
2022-10-16T19:18:53.179Z,27.73
2022-10-16T19:21:20.227Z,23.60
2022-10-16T19:23:47.174Z,23.00
2022-10-16T19:26:18.286Z,23.20
2022-10-16T19:28:47.244Z,22.03
2022-10-16T19:31:16.355Z,17.80
2022-10-16T19:33:43.442Z,18.00
2022-10-16T19:36:19.010Z,23.47
2022-10-16T19:38:50.878Z,20.53
2022-10-16T19:41:18.143Z,20.63
2022-10-16T19:43:45.097Z,34.47
2022-10-16T19:46:18.673Z,28.87
2022-10-16T19:48:47.279Z,29.30
2022-10-16T19:51:20.258Z,28.93
2022-10-16T19:53:47.163Z,26.87
2022-10-16T19:56:15.226Z,27.17
2022-10-16T19:58:43.337Z,25.63
2022-10-16T20:01:10.171Z,29.53
2022-10-16T20:03:41.769Z,25.97
2022-10-16T20:06:09.144Z,49.53
2022-10-16T20:08:36.345Z,22.07
2022-10-16T20:11:04.044Z,33.97
2022-10-16T20:13:30.889Z,22.37
2022-10-16T20:15:57.752Z,21.93
2022-10-16T20:18:24.617Z,17.63
2022-10-16T20:20:52.825Z,16.83
2022-10-16T20:23:20.122Z,16.57
2022-10-16T20:25:47.002Z,32.07
2022-10-16T20:28:15.869Z,23.37
2022-10-16T20:30:44.288Z,15.30
2022-10-16T20:33:15.613Z,18.80
2022-10-16T20:35:43.759Z,28.97
2022-10-16T20:38:12.062Z,33.67
2022-10-16T20:40:39.458Z,21.80
2022-10-16T20:43:06.320Z,21.30
2022-10-16T20:45:33.524Z,157.67
2022-10-16T20:48:00.979Z,27.13
2022-10-16T20:50:30.844Z,18.50
2022-10-16T20:52:57.961Z,17.20
2022-10-16T20:55:24.627Z,22.80
2022-10-16T20:57:52.249Z,18.50
2022-10-16T21:00:20.540Z,17.07
2022-10-16T21:02:49.762Z,24.17
2022-10-16T21:05:16.587Z,21.13
2022-10-16T21:07:44.110Z,34.10
2022-10-16T21:10:10.810Z,35.63
2022-10-16T21:12:40.083Z,77.70
2022-10-16T21:15:14.935Z,22.50
2022-10-16T21:17:43.824Z,16.87
2022-10-16T21:20:17.646Z,82.17
2022-10-16T21:22:44.329Z,48.33
2022-10-16T21:25:11.189Z,19.03
2022-10-16T21:27:38.452Z,79.83
2022-10-16T21:30:11.317Z,20.50
2022-10-16T21:32:38.891Z,44.37
2022-10-16T21:35:06.404Z,39.03
2022-10-16T21:37:33.367Z,21.23
2022-10-16T21:39:59.933Z,37.43
2022-10-16T21:42:26.969Z,66.83
2022-10-16T21:44:54.116Z,32.40
2022-10-16T21:47:20.683Z,30.80
2022-10-16T21:49:47.187Z,24.37
2022-10-16T21:52:13.884Z,21.20
2022-10-16T21:54:41.580Z,16.57
2022-10-16T21:57:08.221Z,18.83
2022-10-16T21:59:34.908Z,20.53
2022-10-16T22:02:03.231Z,13.37
2022-10-16T22:04:29.840Z,14.53
2022-10-16T22:06:56.511Z,21.90
2022-10-16T22:09:23.338Z,21.00
2022-10-16T22:11:53.628Z,18.83
2022-10-16T22:14:20.921Z,11.33
2022-10-16T22:16:47.945Z,12.67
2022-10-16T22:19:15.196Z,12.63
2022-10-16T22:21:41.878Z,16.07
2022-10-16T22:24:08.503Z,12.47
2022-10-16T22:26:35.669Z,12.00
2022-10-16T22:29:02.356Z,14.67
2022-10-16T22:31:29.313Z,11.93
2022-10-16T22:33:58.818Z,14.43
2022-10-16T22:36:25.941Z,16.17
2022-10-16T22:38:53.731Z,82.10
2022-10-16T22:41:20.452Z,13.30
2022-10-16T22:43:50.442Z,18.27
2022-10-16T22:46:21.187Z,16.43
2022-10-16T22:48:47.867Z,12.37
2022-10-16T22:51:16.916Z,23.30
2022-10-16T22:53:44.711Z,28.43
2022-10-16T22:56:11.270Z,16.97
2022-10-16T22:58:37.893Z,16.77
2022-10-16T23:01:09.970Z,13.60
2022-10-16T23:03:36.697Z,13.10
2022-10-16T23:06:03.917Z,8.83
2022-10-16T23:08:30.484Z,11.37
2022-10-16T23:11:00.959Z,10.80
2022-10-16T23:13:27.943Z,8.83
2022-10-16T23:15:54.480Z,10.17
2022-10-16T23:18:21.052Z,9.93
2022-10-16T23:20:47.588Z,11.47
2022-10-16T23:23:14.192Z,9.93
2022-10-16T23:25:44.672Z,10.03
2022-10-16T23:28:11.300Z,8.40
2022-10-16T23:30:38.638Z,10.23
2022-10-16T23:33:05.261Z,8.57
2022-10-16T23:35:31.823Z,11.63
2022-10-16T23:37:58.385Z,7.57
2022-10-16T23:40:24.917Z,8.20
2022-10-16T23:42:51.640Z,6.97
2022-10-16T23:45:18.211Z,8.93
2022-10-16T23:47:44.809Z,8.27
2022-10-16T23:50:11.437Z,10.47
2022-10-16T23:52:38.067Z,10.17
2022-10-16T23:55:05.130Z,10.50
2022-10-16T23:57:31.730Z,12.13
2022-10-16T23:59:58.303Z,7.40
